sensor_id;sensor_type;location;lat;lon;timestamp;temperature;humidity
5304;DHT22;2674;49.722;10.892;2022-12-07T00:01:12;2.60;99.90
5304;DHT22;2674;49.722;10.892;2022-12-07T00:03:38;2.60;99.90
5304;DHT22;2674;49.722;10.892;2022-12-07T00:06:06;2.60;99.90
5304;DHT22;2674;49.722;10.892;2022-12-07T00:08:34;2.60;99.90
5304;DHT22;2674;49.722;10.892;2022-12-07T00:13:35;2.60;99.90
5304;DHT22;2674;49.722;10.892;2022-12-07T00:16:06;2.60;99.90
5304;DHT22;2674;49.722;10.892;2022-12-07T00:18:32;2.60;99.90
5304;DHT22;2674;49.722;10.892;2022-12-07T00:23:28;2.60;99.90
5304;DHT22;2674;49.722;10.892;2022-12-07T00:25:53;2.60;99.90
5304;DHT22;2674;49.722;10.892;2022-12-07T00:28:19;2.60;99.90
5304;DHT22;2674;49.722;10.892;2022-12-07T00:30:45;2.60;99.90
5304;DHT22;2674;49.722;10.892;2022-12-07T00:33:11;2.60;99.90
5304;DHT22;2674;49.722;10.892;2022-12-07T00:35:36;2.60;99.90
5304;DHT22;2674;49.722;10.892;2022-12-07T00:38:02;2.60;99.90
5304;DHT22;2674;49.722;10.892;2022-12-07T00:40:28;2.60;99.90
5304;DHT22;2674;49.722;10.892;2022-12-07T00:42:54;2.60;99.90
5304;DHT22;2674;49.722;10.892;2022-12-07T00:45:20;2.60;99.90
5304;DHT22;2674;49.722;10.892;2022-12-07T00:47:45;2.60;99.90
5304;DHT22;2674;49.722;10.892;2022-12-07T00:50:11;2.80;99.90
5304;DHT22;2674;49.722;10.892;2022-12-07T00:52:37;2.60;99.90
5304;DHT22;2674;49.722;10.892;2022-12-07T00:55:03;2.60;99.90
5304;DHT22;2674;49.722;10.892;2022-12-07T00:57:30;2.60;99.90
5304;DHT22;2674;49.722;10.892;2022-12-07T00:59:56;2.60;99.90
5304;DHT22;2674;49.722;10.892;2022-12-07T01:02:23;2.60;99.90
5304;DHT22;2674;49.722;10.892;2022-12-07T01:04:49;2.60;99.90
5304;DHT22;2674;49.722;10.892;2022-12-07T01:07:15;2.60;99.90
5304;DHT22;2674;49.722;10.892;2022-12-07T01:09:40;2.60;99.90
5304;DHT22;2674;49.722;10.892;2022-12-07T01:12:06;2.60;99.90
5304;DHT22;2674;49.722;10.892;2022-12-07T01:14:32;2.50;99.90
5304;DHT22;2674;49.722;10.892;2022-12-07T01:16:58;2.60;99.90
5304;DHT22;2674;49.722;10.892;2022-12-07T01:19:24;2.50;99.90
5304;DHT22;2674;49.722;10.892;2022-12-07T01:21:50;2.50;99.90
5304;DHT22;2674;49.722;10.892;2022-12-07T01:24:15;2.50;99.90
5304;DHT22;2674;49.722;10.892;2022-12-07T01:26:41;2.50;99.90
5304;DHT22;2674;49.722;10.892;2022-12-07T01:29:07;2.50;99.90
5304;DHT22;2674;49.722;10.892;2022-12-07T01:31:33;2.50;99.90
5304;DHT22;2674;49.722;10.892;2022-12-07T01:34:00;2.50;99.90
5304;DHT22;2674;49.722;10.892;2022-12-07T01:36:29;2.50;99.90
5304;DHT22;2674;49.722;10.892;2022-12-07T01:39:01;2.50;99.90
5304;DHT22;2674;49.722;10.892;2022-12-07T01:41:31;2.50;99.90
5304;DHT22;2674;49.722;10.892;2022-12-07T01:47:22;2.50;99.90
5304;DHT22;2674;49.722;10.892;2022-12-07T01:49:44;2.50;99.90
5304;DHT22;2674;49.722;10.892;2022-12-07T01:52:27;2.40;99.90
5304;DHT22;2674;49.722;10.892;2022-12-07T01:54:58;2.50;99.90
5304;DHT22;2674;49.722;10.892;2022-12-07T01:57:25;2.40;99.90
5304;DHT22;2674;49.722;10.892;2022-12-07T01:59:52;2.40;99.90
5304;DHT22;2674;49.722;10.892;2022-12-07T02:02:25;2.40;99.90
5304;DHT22;2674;49.722;10.892;2022-12-07T02:04:53;2.40;99.90
5304;DHT22;2674;49.722;10.892;2022-12-07T02:07:20;2.40;99.90
5304;DHT22;2674;49.722;10.892;2022-12-07T02:09:48;2.40;99.90
5304;DHT22;2674;49.722;10.892;2022-12-07T02:12:14;2.30;99.90
5304;DHT22;2674;49.722;10.892;2022-12-07T02:14:40;2.20;99.90
5304;DHT22;2674;49.722;10.892;2022-12-07T02:17:28;2.20;99.90
5304;DHT22;2674;49.722;10.892;2022-12-07T02:23:07;2.10;99.90
5304;DHT22;2674;49.722;10.892;2022-12-07T02:31:23;2.10;99.90
5304;DHT22;2674;49.722;10.892;2022-12-07T02:33:57;2.00;99.90
5304;DHT22;2674;49.722;10.892;2022-12-07T02:36:31;2.00;99.90
5304;DHT22;2674;49.722;10.892;2022-12-07T02:39:20;2.00;99.90
5304;DHT22;2674;49.722;10.892;2022-12-07T02:41:54;2.00;99.90
5304;DHT22;2674;49.722;10.892;2022-12-07T02:44:24;2.00;99.90
5304;DHT22;2674;49.722;10.892;2022-12-07T02:46:58;2.00;99.90
5304;DHT22;2674;49.722;10.892;2022-12-07T02:49:25;1.90;99.90
5304;DHT22;2674;49.722;10.892;2022-12-07T02:51:53;1.90;99.90
5304;DHT22;2674;49.722;10.892;2022-12-07T02:54:20;2.00;99.90
5304;DHT22;2674;49.722;10.892;2022-12-07T03:05:31;2.00;99.90
5304;DHT22;2674;49.722;10.892;2022-12-07T03:08:11;2.00;99.90
5304;DHT22;2674;49.722;10.892;2022-12-07T03:15:58;1.90;99.90
5304;DHT22;2674;49.722;10.892;2022-12-07T03:18:29;2.00;99.90
5304;DHT22;2674;49.722;10.892;2022-12-07T03:21:01;1.90;99.90
5304;DHT22;2674;49.722;10.892;2022-12-07T03:23:28;1.90;99.90
5304;DHT22;2674;49.722;10.892;2022-12-07T03:25:59;1.80;99.90
5304;DHT22;2674;49.722;10.892;2022-12-07T03:28:28;1.80;99.90
5304;DHT22;2674;49.722;10.892;2022-12-07T03:30:59;1.80;99.90
5304;DHT22;2674;49.722;10.892;2022-12-07T03:33:44;1.80;99.90
5304;DHT22;2674;49.722;10.892;2022-12-07T03:36:43;1.80;99.90
5304;DHT22;2674;49.722;10.892;2022-12-07T03:41:44;1.80;99.90
5304;DHT22;2674;49.722;10.892;2022-12-07T03:44:10;1.70;99.90
5304;DHT22;2674;49.722;10.892;2022-12-07T03:46:52;1.70;99.90
5304;DHT22;2674;49.722;10.892;2022-12-07T03:49:56;1.80;99.90
5304;DHT22;2674;49.722;10.892;2022-12-07T03:53:13;1.70;99.90
5304;DHT22;2674;49.722;10.892;2022-12-07T03:55:34;1.80;99.90
5304;DHT22;2674;49.722;10.892;2022-12-07T03:58:07;1.70;99.90
5304;DHT22;2674;49.722;10.892;2022-12-07T04:00:35;1.80;99.90
5304;DHT22;2674;49.722;10.892;2022-12-07T04:03:01;1.70;99.90
5304;DHT22;2674;49.722;10.892;2022-12-07T04:05:27;1.80;99.90
5304;DHT22;2674;49.722;10.892;2022-12-07T04:07:53;1.80;99.90
5304;DHT22;2674;49.722;10.892;2022-12-07T04:10:19;1.80;99.90
5304;DHT22;2674;49.722;10.892;2022-12-07T04:12:45;1.80;99.90
5304;DHT22;2674;49.722;10.892;2022-12-07T04:15:11;1.80;99.90
5304;DHT22;2674;49.722;10.892;2022-12-07T04:17:37;1.80;99.90
5304;DHT22;2674;49.722;10.892;2022-12-07T04:20:04;1.70;99.90
5304;DHT22;2674;49.722;10.892;2022-12-07T04:22:30;1.80;99.90
5304;DHT22;2674;49.722;10.892;2022-12-07T04:24:56;1.80;99.90
5304;DHT22;2674;49.722;10.892;2022-12-07T04:27:21;1.80;99.90
5304;DHT22;2674;49.722;10.892;2022-12-07T04:29:47;1.70;99.90
5304;DHT22;2674;49.722;10.892;2022-12-07T04:32:13;1.80;99.90
5304;DHT22;2674;49.722;10.892;2022-12-07T04:34:39;1.80;99.90
5304;DHT22;2674;49.722;10.892;2022-12-07T04:37:04;1.80;99.90
5304;DHT22;2674;49.722;10.892;2022-12-07T04:39:32;1.70;99.90
5304;DHT22;2674;49.722;10.892;2022-12-07T04:41:59;1.80;99.90
5304;DHT22;2674;49.722;10.892;2022-12-07T04:44:26;1.80;99.90
5304;DHT22;2674;49.722;10.892;2022-12-07T04:46:53;1.80;99.90
5304;DHT22;2674;49.722;10.892;2022-12-07T04:49:20;1.80;99.90
5304;DHT22;2674;49.722;10.892;2022-12-07T04:51:47;1.80;99.90
5304;DHT22;2674;49.722;10.892;2022-12-07T04:54:14;1.80;99.90
5304;DHT22;2674;49.722;10.892;2022-12-07T04:56:40;1.80;99.90
5304;DHT22;2674;49.722;10.892;2022-12-07T04:59:07;1.80;99.90
5304;DHT22;2674;49.722;10.892;2022-12-07T05:01:33;1.80;99.90
5304;DHT22;2674;49.722;10.892;2022-12-07T05:03:59;1.80;99.90
5304;DHT22;2674;49.722;10.892;2022-12-07T05:06:25;1.80;99.90
5304;DHT22;2674;49.722;10.892;2022-12-07T05:08:51;1.80;99.90
5304;DHT22;2674;49.722;10.892;2022-12-07T05:11:17;1.80;99.90
5304;DHT22;2674;49.722;10.892;2022-12-07T05:14:03;1.90;99.90
5304;DHT22;2674;49.722;10.892;2022-12-07T05:16:29;1.80;99.90
5304;DHT22;2674;49.722;10.892;2022-12-07T05:18:55;1.80;99.90
5304;DHT22;2674;49.722;10.892;2022-12-07T05:21:22;1.80;99.90
5304;DHT22;2674;49.722;10.892;2022-12-07T05:23:48;1.90;99.90
5304;DHT22;2674;49.722;10.892;2022-12-07T05:26:14;1.90;99.90
5304;DHT22;2674;49.722;10.892;2022-12-07T05:28:39;1.90;99.90
5304;DHT22;2674;49.722;10.892;2022-12-07T05:31:05;1.90;99.90
5304;DHT22;2674;49.722;10.892;2022-12-07T05:33:31;1.90;99.90
5304;DHT22;2674;49.722;10.892;2022-12-07T05:35:57;1.90;99.90
5304;DHT22;2674;49.722;10.892;2022-12-07T05:38:23;1.90;99.90
5304;DHT22;2674;49.722;10.892;2022-12-07T05:40:50;1.90;99.90
5304;DHT22;2674;49.722;10.892;2022-12-07T05:43:16;1.90;99.90
5304;DHT22;2674;49.722;10.892;2022-12-07T05:45:42;1.90;99.90
5304;DHT22;2674;49.722;10.892;2022-12-07T05:48:08;1.90;99.90
5304;DHT22;2674;49.722;10.892;2022-12-07T05:50:33;1.90;99.90
5304;DHT22;2674;49.722;10.892;2022-12-07T05:52:59;1.90;99.90
5304;DHT22;2674;49.722;10.892;2022-12-07T05:55:25;1.90;99.90
5304;DHT22;2674;49.722;10.892;2022-12-07T05:57:51;1.90;99.90
5304;DHT22;2674;49.722;10.892;2022-12-07T06:00:36;1.90;99.90
5304;DHT22;2674;49.722;10.892;2022-12-07T06:03:01;1.90;99.90
5304;DHT22;2674;49.722;10.892;2022-12-07T06:05:27;1.90;99.90
5304;DHT22;2674;49.722;10.892;2022-12-07T06:07:53;1.90;99.90
5304;DHT22;2674;49.722;10.892;2022-12-07T06:10:19;1.90;99.90
5304;DHT22;2674;49.722;10.892;2022-12-07T06:12:45;1.90;99.90
5304;DHT22;2674;49.722;10.892;2022-12-07T06:15:11;1.90;99.90
5304;DHT22;2674;49.722;10.892;2022-12-07T06:17:38;1.90;99.90
5304;DHT22;2674;49.722;10.892;2022-12-07T06:20:05;1.90;99.90
5304;DHT22;2674;49.722;10.892;2022-12-07T06:22:31;1.90;99.90
5304;DHT22;2674;49.722;10.892;2022-12-07T06:24:57;2.00;99.90
5304;DHT22;2674;49.722;10.892;2022-12-07T06:27:22;2.00;99.90
5304;DHT22;2674;49.722;10.892;2022-12-07T06:29:48;2.00;99.90
5304;DHT22;2674;49.722;10.892;2022-12-07T06:32:14;2.00;99.90
5304;DHT22;2674;49.722;10.892;2022-12-07T06:34:40;2.00;99.90
5304;DHT22;2674;49.722;10.892;2022-12-07T06:37:06;2.00;99.90
5304;DHT22;2674;49.722;10.892;2022-12-07T06:39:32;2.00;99.90
5304;DHT22;2674;49.722;10.892;2022-12-07T06:41:58;2.00;99.90
5304;DHT22;2674;49.722;10.892;2022-12-07T06:44:24;2.00;99.90
5304;DHT22;2674;49.722;10.892;2022-12-07T06:46:50;2.00;99.90
5304;DHT22;2674;49.722;10.892;2022-12-07T06:49:17;2.00;99.90
5304;DHT22;2674;49.722;10.892;2022-12-07T06:51:43;2.00;99.90
5304;DHT22;2674;49.722;10.892;2022-12-07T06:54:14;2.00;99.90
5304;DHT22;2674;49.722;10.892;2022-12-07T06:56:40;2.00;99.90
5304;DHT22;2674;49.722;10.892;2022-12-07T06:59:06;2.00;99.90
5304;DHT22;2674;49.722;10.892;2022-12-07T07:01:33;2.00;99.90
5304;DHT22;2674;49.722;10.892;2022-12-07T07:04:00;2.10;99.90
5304;DHT22;2674;49.722;10.892;2022-12-07T07:06:26;2.10;99.90
5304;DHT22;2674;49.722;10.892;2022-12-07T07:08:52;2.00;99.90
5304;DHT22;2674;49.722;10.892;2022-12-07T07:11:18;2.10;99.90
5304;DHT22;2674;49.722;10.892;2022-12-07T07:13:45;2.10;99.90
5304;DHT22;2674;49.722;10.892;2022-12-07T07:16:11;2.10;99.90
5304;DHT22;2674;49.722;10.892;2022-12-07T07:18:37;2.10;99.90
5304;DHT22;2674;49.722;10.892;2022-12-07T07:21:03;2.10;99.90
5304;DHT22;2674;49.722;10.892;2022-12-07T07:23:29;2.20;99.90
5304;DHT22;2674;49.722;10.892;2022-12-07T07:25:55;2.20;99.90
5304;DHT22;2674;49.722;10.892;2022-12-07T07:28:21;2.20;99.90
5304;DHT22;2674;49.722;10.892;2022-12-07T07:30:47;2.20;99.90
5304;DHT22;2674;49.722;10.892;2022-12-07T07:33:14;2.20;99.90
5304;DHT22;2674;49.722;10.892;2022-12-07T07:35:40;2.20;99.90
5304;DHT22;2674;49.722;10.892;2022-12-07T07:38:06;2.30;99.90
5304;DHT22;2674;49.722;10.892;2022-12-07T07:40:32;2.30;99.90
5304;DHT22;2674;49.722;10.892;2022-12-07T07:42:58;2.30;99.90
5304;DHT22;2674;49.722;10.892;2022-12-07T07:45:26;2.30;99.90
5304;DHT22;2674;49.722;10.892;2022-12-07T07:47:52;2.30;99.90
5304;DHT22;2674;49.722;10.892;2022-12-07T07:50:18;2.30;99.90
5304;DHT22;2674;49.722;10.892;2022-12-07T07:52:45;2.40;99.90
5304;DHT22;2674;49.722;10.892;2022-12-07T07:55:11;2.50;99.90
5304;DHT22;2674;49.722;10.892;2022-12-07T07:57:38;2.40;99.90
5304;DHT22;2674;49.722;10.892;2022-12-07T08:00:10;2.40;99.90
5304;DHT22;2674;49.722;10.892;2022-12-07T08:02:36;2.40;99.90
5304;DHT22;2674;49.722;10.892;2022-12-07T08:05:02;2.40;99.90
5304;DHT22;2674;49.722;10.892;2022-12-07T08:07:28;2.40;99.90
5304;DHT22;2674;49.722;10.892;2022-12-07T08:09:54;2.50;99.90
5304;DHT22;2674;49.722;10.892;2022-12-07T08:12:21;2.70;99.90
5304;DHT22;2674;49.722;10.892;2022-12-07T08:14:47;2.80;99.90
5304;DHT22;2674;49.722;10.892;2022-12-07T08:17:13;2.80;99.90
5304;DHT22;2674;49.722;10.892;2022-12-07T08:19:39;2.70;99.90
5304;DHT22;2674;49.722;10.892;2022-12-07T08:22:05;2.70;99.90
5304;DHT22;2674;49.722;10.892;2022-12-07T08:24:33;2.70;99.90
5304;DHT22;2674;49.722;10.892;2022-12-07T08:26:59;2.60;99.90
5304;DHT22;2674;49.722;10.892;2022-12-07T08:29:28;2.60;99.90
5304;DHT22;2674;49.722;10.892;2022-12-07T08:31:54;2.60;99.90
5304;DHT22;2674;49.722;10.892;2022-12-07T08:34:20;2.60;99.90
5304;DHT22;2674;49.722;10.892;2022-12-07T08:36:46;2.60;99.90
5304;DHT22;2674;49.722;10.892;2022-12-07T08:39:12;2.60;99.90
5304;DHT22;2674;49.722;10.892;2022-12-07T08:41:38;2.70;99.90
5304;DHT22;2674;49.722;10.892;2022-12-07T08:44:04;2.60;99.90
5304;DHT22;2674;49.722;10.892;2022-12-07T08:49:03;2.70;99.90
5304;DHT22;2674;49.722;10.892;2022-12-07T08:51:30;2.70;99.90
5304;DHT22;2674;49.722;10.892;2022-12-07T08:53:56;2.70;99.90
5304;DHT22;2674;49.722;10.892;2022-12-07T08:56:24;2.70;99.90
5304;DHT22;2674;49.722;10.892;2022-12-07T08:58:50;2.70;99.90
5304;DHT22;2674;49.722;10.892;2022-12-07T09:01:17;2.70;99.90
5304;DHT22;2674;49.722;10.892;2022-12-07T09:03:43;2.80;99.90
5304;DHT22;2674;49.722;10.892;2022-12-07T09:06:09;2.80;99.90
5304;DHT22;2674;49.722;10.892;2022-12-07T09:08:37;2.80;99.90
5304;DHT22;2674;49.722;10.892;2022-12-07T09:11:05;2.80;99.90
5304;DHT22;2674;49.722;10.892;2022-12-07T09:13:30;2.80;99.90
5304;DHT22;2674;49.722;10.892;2022-12-07T09:15:59;2.90;99.90
5304;DHT22;2674;49.722;10.892;2022-12-07T09:18:25;2.80;99.90
5304;DHT22;2674;49.722;10.892;2022-12-07T09:20:51;2.80;99.90
5304;DHT22;2674;49.722;10.892;2022-12-07T09:23:17;2.80;99.90
5304;DHT22;2674;49.722;10.892;2022-12-07T09:25:43;2.80;99.90
5304;DHT22;2674;49.722;10.892;2022-12-07T09:28:08;2.90;99.90
5304;DHT22;2674;49.722;10.892;2022-12-07T09:30:34;2.90;99.90
5304;DHT22;2674;49.722;10.892;2022-12-07T09:33:00;2.90;99.90
5304;DHT22;2674;49.722;10.892;2022-12-07T09:35:27;2.90;99.90
5304;DHT22;2674;49.722;10.892;2022-12-07T09:37:53;2.90;99.90
5304;DHT22;2674;49.722;10.892;2022-12-07T09:40:21;2.90;99.90
5304;DHT22;2674;49.722;10.892;2022-12-07T09:42:51;2.90;99.90
5304;DHT22;2674;49.722;10.892;2022-12-07T09:47:47;2.90;99.90
5304;DHT22;2674;49.722;10.892;2022-12-07T09:50:24;3.00;99.90
5304;DHT22;2674;49.722;10.892;2022-12-07T09:52:51;3.00;99.90
5304;DHT22;2674;49.722;10.892;2022-12-07T09:55:27;3.00;99.90
5304;DHT22;2674;49.722;10.892;2022-12-07T09:57:53;3.00;99.90
5304;DHT22;2674;49.722;10.892;2022-12-07T10:00:21;3.00;99.90
5304;DHT22;2674;49.722;10.892;2022-12-07T10:02:56;3.00;99.90
5304;DHT22;2674;49.722;10.892;2022-12-07T10:05:29;3.00;99.90
5304;DHT22;2674;49.722;10.892;2022-12-07T10:07:55;3.10;99.90
5304;DHT22;2674;49.722;10.892;2022-12-07T10:10:31;3.10;99.90
5304;DHT22;2674;49.722;10.892;2022-12-07T10:13:03;3.10;99.90
5304;DHT22;2674;49.722;10.892;2022-12-07T10:15:57;3.10;99.90
5304;DHT22;2674;49.722;10.892;2022-12-07T10:21:18;3.10;99.90
5304;DHT22;2674;49.722;10.892;2022-12-07T10:24:14;3.20;99.90
5304;DHT22;2674;49.722;10.892;2022-12-07T10:29:24;3.20;99.90
5304;DHT22;2674;49.722;10.892;2022-12-07T10:32:05;3.20;99.90
5304;DHT22;2674;49.722;10.892;2022-12-07T10:34:33;3.20;99.90
5304;DHT22;2674;49.722;10.892;2022-12-07T10:39:57;3.20;99.90
5304;DHT22;2674;49.722;10.892;2022-12-07T10:44:50;3.20;99.90
5304;DHT22;2674;49.722;10.892;2022-12-07T11:04:39;3.30;99.90
5304;DHT22;2674;49.722;10.892;2022-12-07T11:26:30;3.50;99.90
5304;DHT22;2674;49.722;10.892;2022-12-07T11:37:59;3.60;99.90
5304;DHT22;2674;49.722;10.892;2022-12-07T11:40:29;3.70;99.90
5304;DHT22;2674;49.722;10.892;2022-12-07T11:43:04;3.70;99.90
5304;DHT22;2674;49.722;10.892;2022-12-07T11:45:33;3.70;99.90
5304;DHT22;2674;49.722;10.892;2022-12-07T11:48:00;3.70;99.90
5304;DHT22;2674;49.722;10.892;2022-12-07T11:53:45;3.80;99.90
5304;DHT22;2674;49.722;10.892;2022-12-07T11:56:13;3.80;99.90
5304;DHT22;2674;49.722;10.892;2022-12-07T12:01:16;3.80;99.90
5304;DHT22;2674;49.722;10.892;2022-12-07T12:03:48;3.80;99.90
5304;DHT22;2674;49.722;10.892;2022-12-07T12:06:15;3.80;99.90
5304;DHT22;2674;49.722;10.892;2022-12-07T12:09:12;3.70;99.90
5304;DHT22;2674;49.722;10.892;2022-12-07T12:14:43;3.80;99.90
5304;DHT22;2674;49.722;10.892;2022-12-07T12:17:20;3.70;99.90
5304;DHT22;2674;49.722;10.892;2022-12-07T12:22:50;3.70;99.90
5304;DHT22;2674;49.722;10.892;2022-12-07T12:25:31;3.80;99.90
5304;DHT22;2674;49.722;10.892;2022-12-07T12:28:00;3.80;99.90
5304;DHT22;2674;49.722;10.892;2022-12-07T12:30:38;3.80;99.90
5304;DHT22;2674;49.722;10.892;2022-12-07T12:36:24;3.80;99.90
5304;DHT22;2674;49.722;10.892;2022-12-07T12:57:37;3.90;99.90
5304;DHT22;2674;49.722;10.892;2022-12-07T13:00:21;3.90;99.90
5304;DHT22;2674;49.722;10.892;2022-12-07T13:02:48;3.90;99.90
5304;DHT22;2674;49.722;10.892;2022-12-07T13:05:19;4.00;99.90
5304;DHT22;2674;49.722;10.892;2022-12-07T13:15:38;4.10;99.90
5304;DHT22;2674;49.722;10.892;2022-12-07T13:26:35;4.00;99.90
5304;DHT22;2674;49.722;10.892;2022-12-07T13:29:17;4.00;99.90
5304;DHT22;2674;49.722;10.892;2022-12-07T13:31:47;4.00;99.90
5304;DHT22;2674;49.722;10.892;2022-12-07T13:34:46;4.00;99.90
5304;DHT22;2674;49.722;10.892;2022-12-07T13:37:32;4.00;99.90
5304;DHT22;2674;49.722;10.892;2022-12-07T13:40:01;4.00;99.90
5304;DHT22;2674;49.722;10.892;2022-12-07T13:42:41;3.90;99.90
5304;DHT22;2674;49.722;10.892;2022-12-07T13:45:32;4.00;99.90
5304;DHT22;2674;49.722;10.892;2022-12-07T13:48:32;3.90;99.90
5304;DHT22;2674;49.722;10.892;2022-12-07T13:51:00;3.90;99.90
5304;DHT22;2674;49.722;10.892;2022-12-07T13:53:30;3.90;99.90
5304;DHT22;2674;49.722;10.892;2022-12-07T13:55:57;3.90;99.90
5304;DHT22;2674;49.722;10.892;2022-12-07T13:58:25;3.90;99.90
5304;DHT22;2674;49.722;10.892;2022-12-07T14:00:51;3.90;99.90
5304;DHT22;2674;49.722;10.892;2022-12-07T14:05:44;3.90;99.90
5304;DHT22;2674;49.722;10.892;2022-12-07T14:15:55;3.90;99.90
5304;DHT22;2674;49.722;10.892;2022-12-07T14:18:39;3.90;99.90
5304;DHT22;2674;49.722;10.892;2022-12-07T14:21:27;4.00;99.90
5304;DHT22;2674;49.722;10.892;2022-12-07T14:26:39;4.00;99.90
5304;DHT22;2674;49.722;10.892;2022-12-07T14:31:57;4.00;99.90
5304;DHT22;2674;49.722;10.892;2022-12-07T14:34:25;4.00;99.90
5304;DHT22;2674;49.722;10.892;2022-12-07T14:36:51;4.00;99.90
5304;DHT22;2674;49.722;10.892;2022-12-07T14:39:17;3.90;99.90
5304;DHT22;2674;49.722;10.892;2022-12-07T14:41:42;3.90;99.90
5304;DHT22;2674;49.722;10.892;2022-12-07T14:44:20;3.90;99.90
5304;DHT22;2674;49.722;10.892;2022-12-07T14:46:49;3.80;99.90
5304;DHT22;2674;49.722;10.892;2022-12-07T14:49:16;3.90;99.90
5304;DHT22;2674;49.722;10.892;2022-12-07T14:51:43;3.80;99.90
5304;DHT22;2674;49.722;10.892;2022-12-07T14:54:17;3.80;99.90
5304;DHT22;2674;49.722;10.892;2022-12-07T14:56:44;3.80;99.90
5304;DHT22;2674;49.722;10.892;2022-12-07T14:59:11;3.90;99.90
5304;DHT22;2674;49.722;10.892;2022-12-07T15:01:38;3.70;99.90
5304;DHT22;2674;49.722;10.892;2022-12-07T15:04:04;3.70;99.90
5304;DHT22;2674;49.722;10.892;2022-12-07T15:06:30;3.60;99.90
5304;DHT22;2674;49.722;10.892;2022-12-07T15:08:55;3.60;99.90
5304;DHT22;2674;49.722;10.892;2022-12-07T15:11:21;3.50;99.90
5304;DHT22;2674;49.722;10.892;2022-12-07T15:13:47;3.40;99.90
5304;DHT22;2674;49.722;10.892;2022-12-07T15:16:31;3.40;99.90
5304;DHT22;2674;49.722;10.892;2022-12-07T15:18:57;3.30;99.90
5304;DHT22;2674;49.722;10.892;2022-12-07T15:21:23;3.30;99.90
5304;DHT22;2674;49.722;10.892;2022-12-07T15:23:49;3.20;99.90
5304;DHT22;2674;49.722;10.892;2022-12-07T15:26:15;3.20;99.90
5304;DHT22;2674;49.722;10.892;2022-12-07T15:28:41;3.20;99.90
5304;DHT22;2674;49.722;10.892;2022-12-07T15:31:17;3.20;99.90
5304;DHT22;2674;49.722;10.892;2022-12-07T15:33:43;3.20;99.90
5304;DHT22;2674;49.722;10.892;2022-12-07T15:36:22;3.20;99.90
5304;DHT22;2674;49.722;10.892;2022-12-07T15:38:49;3.10;99.90
5304;DHT22;2674;49.722;10.892;2022-12-07T15:41:16;3.10;99.90
5304;DHT22;2674;49.722;10.892;2022-12-07T15:43:43;3.10;99.90
5304;DHT22;2674;49.722;10.892;2022-12-07T15:46:38;3.10;99.90
5304;DHT22;2674;49.722;10.892;2022-12-07T15:49:17;3.10;99.90
5304;DHT22;2674;49.722;10.892;2022-12-07T15:51:44;3.00;99.90
5304;DHT22;2674;49.722;10.892;2022-12-07T15:54:18;3.00;99.90
5304;DHT22;2674;49.722;10.892;2022-12-07T15:56:44;3.10;99.90
5304;DHT22;2674;49.722;10.892;2022-12-07T15:59:10;3.00;99.90
5304;DHT22;2674;49.722;10.892;2022-12-07T16:01:36;3.10;99.90
5304;DHT22;2674;49.722;10.892;2022-12-07T16:04:01;3.00;99.90
5304;DHT22;2674;49.722;10.892;2022-12-07T16:06:27;3.00;99.90
5304;DHT22;2674;49.722;10.892;2022-12-07T16:08:53;3.10;99.90
5304;DHT22;2674;49.722;10.892;2022-12-07T16:11:20;3.00;99.90
5304;DHT22;2674;49.722;10.892;2022-12-07T16:13:46;3.00;99.90
5304;DHT22;2674;49.722;10.892;2022-12-07T16:16:14;3.00;99.90
5304;DHT22;2674;49.722;10.892;2022-12-07T16:18:42;3.00;99.90
5304;DHT22;2674;49.722;10.892;2022-12-07T16:21:08;2.90;99.90
5304;DHT22;2674;49.722;10.892;2022-12-07T16:23:34;2.90;99.90
5304;DHT22;2674;49.722;10.892;2022-12-07T16:26:05;2.90;99.90
5304;DHT22;2674;49.722;10.892;2022-12-07T16:28:31;2.90;99.90
5304;DHT22;2674;49.722;10.892;2022-12-07T16:31:09;2.90;99.90
5304;DHT22;2674;49.722;10.892;2022-12-07T16:33:36;2.90;99.90
5304;DHT22;2674;49.722;10.892;2022-12-07T16:36:03;2.80;99.90
5304;DHT22;2674;49.722;10.892;2022-12-07T16:38:30;2.80;99.90
5304;DHT22;2674;49.722;10.892;2022-12-07T16:40:55;2.80;99.90
5304;DHT22;2674;49.722;10.892;2022-12-07T16:43:21;2.80;99.90
5304;DHT22;2674;49.722;10.892;2022-12-07T16:45:48;2.80;99.90
5304;DHT22;2674;49.722;10.892;2022-12-07T16:48:15;2.80;99.90
5304;DHT22;2674;49.722;10.892;2022-12-07T16:50:42;2.80;99.90
5304;DHT22;2674;49.722;10.892;2022-12-07T16:53:10;2.80;99.90
5304;DHT22;2674;49.722;10.892;2022-12-07T16:55:40;2.80;99.90
5304;DHT22;2674;49.722;10.892;2022-12-07T16:58:07;2.70;99.90
5304;DHT22;2674;49.722;10.892;2022-12-07T17:00:34;2.70;99.90
5304;DHT22;2674;49.722;10.892;2022-12-07T17:03:00;2.70;99.90
5304;DHT22;2674;49.722;10.892;2022-12-07T17:05:28;2.90;99.90
5304;DHT22;2674;49.722;10.892;2022-12-07T17:07:55;2.70;99.90
5304;DHT22;2674;49.722;10.892;2022-12-07T17:10:22;2.70;99.90
5304;DHT22;2674;49.722;10.892;2022-12-07T17:12:49;2.70;99.90
5304;DHT22;2674;49.722;10.892;2022-12-07T17:15:15;2.70;99.90
5304;DHT22;2674;49.722;10.892;2022-12-07T17:17:57;2.70;99.90
5304;DHT22;2674;49.722;10.892;2022-12-07T17:20:25;2.70;99.90
5304;DHT22;2674;49.722;10.892;2022-12-07T17:22:51;2.70;99.90
5304;DHT22;2674;49.722;10.892;2022-12-07T17:25:18;2.60;99.90
5304;DHT22;2674;49.722;10.892;2022-12-07T17:27:45;2.60;99.90
5304;DHT22;2674;49.722;10.892;2022-12-07T17:30:12;2.60;99.90
5304;DHT22;2674;49.722;10.892;2022-12-07T17:32:38;2.60;99.90
5304;DHT22;2674;49.722;10.892;2022-12-07T17:35:04;2.70;99.90
5304;DHT22;2674;49.722;10.892;2022-12-07T17:37:31;2.70;99.90
5304;DHT22;2674;49.722;10.892;2022-12-07T17:39:57;2.70;99.90
5304;DHT22;2674;49.722;10.892;2022-12-07T17:42:24;2.70;99.90
5304;DHT22;2674;49.722;10.892;2022-12-07T17:45:07;2.70;99.90
5304;DHT22;2674;49.722;10.892;2022-12-07T17:47:35;2.70;99.90
5304;DHT22;2674;49.722;10.892;2022-12-07T17:50:01;2.70;99.90
5304;DHT22;2674;49.722;10.892;2022-12-07T17:52:27;2.70;99.90
5304;DHT22;2674;49.722;10.892;2022-12-07T17:55:11;2.70;99.90
5304;DHT22;2674;49.722;10.892;2022-12-07T17:57:37;2.70;99.90
5304;DHT22;2674;49.722;10.892;2022-12-07T18:00:04;2.70;99.90
5304;DHT22;2674;49.722;10.892;2022-12-07T18:02:31;2.70;99.90
5304;DHT22;2674;49.722;10.892;2022-12-07T18:04:56;2.70;99.90
5304;DHT22;2674;49.722;10.892;2022-12-07T18:07:22;2.70;99.90
5304;DHT22;2674;49.722;10.892;2022-12-07T18:09:48;2.70;99.90
5304;DHT22;2674;49.722;10.892;2022-12-07T18:12:14;2.70;99.90
5304;DHT22;2674;49.722;10.892;2022-12-07T18:14:40;2.70;99.90
5304;DHT22;2674;49.722;10.892;2022-12-07T18:17:05;2.70;99.90
5304;DHT22;2674;49.722;10.892;2022-12-07T18:19:31;2.70;99.90
5304;DHT22;2674;49.722;10.892;2022-12-07T18:22:01;2.70;99.90
5304;DHT22;2674;49.722;10.892;2022-12-07T18:24:27;2.70;99.90
5304;DHT22;2674;49.722;10.892;2022-12-07T18:26:53;2.70;99.90
5304;DHT22;2674;49.722;10.892;2022-12-07T18:29:18;2.70;99.90
5304;DHT22;2674;49.722;10.892;2022-12-07T18:31:46;2.70;99.90
5304;DHT22;2674;49.722;10.892;2022-12-07T18:34:14;2.60;99.90
5304;DHT22;2674;49.722;10.892;2022-12-07T18:36:43;2.70;99.90
5304;DHT22;2674;49.722;10.892;2022-12-07T18:39:13;2.60;99.90
5304;DHT22;2674;49.722;10.892;2022-12-07T18:41:39;2.60;99.90
5304;DHT22;2674;49.722;10.892;2022-12-07T18:44:06;2.60;99.90
5304;DHT22;2674;49.722;10.892;2022-12-07T18:46:33;2.60;99.90
5304;DHT22;2674;49.722;10.892;2022-12-07T18:48:59;2.60;99.90
5304;DHT22;2674;49.722;10.892;2022-12-07T18:51:26;2.60;99.90
5304;DHT22;2674;49.722;10.892;2022-12-07T18:53:55;2.60;99.90